Hawk Point, MO (63349)

4:31 AM CDT on July 29, 2015 (GMT -0500)
Weather from the Roof | | Change Station
CLOSE
Current Station
Personal Weather Station
Location: Warrenton, MO
Elevation: 869 ft
Nearby Weather Stations

Elev 869 ft 38.80 °N, 91.13 °W | Updated 4 seconds ago

Clear
Clear
78.6 °F
Feels Like 82 °F
N
0.9
Wind Variable Wind from SSW
Gusts 2.5 mph

Today
High -- | Low -- °F
--% Chance of Precip.
Yesterday
High -- | Low -- °F
Precip. -- in
6:02 AM 8:19 PM
Waxing Gibbous, 94% visible
Pressure 29.98 in
Visibility 3.0 miles
Clouds Clear
Heat Index 82 °F
Dew Point 76 °F
Humidity 92%
Rainfall 0.00 in
Snow Depth Not available.
UV 0.0 out of 12
Pollen 5.70 out of 12
Air Quality Not available.
Flu Activity Not available.
METAR KFYG 290915Z AUTO 00000KT 3SM BR CLR 25/25 A2998 RMK AO2

More Conditions Fewer Conditions

Pressure 29.98 in
Visibility 3.0 miles
Clouds Clear
Heat Index 82 °F
Dew Point 76 °F
Humidity 92%
Rainfall 0.00 in
Snow Depth Not available.
UV 0.0 out of 12
Pollen 5.70 out of 12
Air Quality Not available.
Flu Activity Not available.
METAR KFYG 290915Z AUTO 00000KT 3SM BR CLR 25/25 A2998 RMK AO2

More Conditions Fewer Conditions

10-Day Weather Forecast

×

Almanac

Astronomy

Jul. 29, 2015 Rise Set
Actual Time
Civil Twilight
Nautical Twilight
Astronomical Twilight
Moon
Length of Visible Light
Length of Day
Tomorrow will be .
, % of the Moon is Illuminated

Today's Extremes

State Highs State Lows

Community

WunderPhotos

Upload Photos

1,842,068 photos uploaded!

WunderBlogs® & News

Nearby

Air Quality

  Air Quality AQ Index Pollutant
Not available.

Snow Depth

Station Depth Elevation

Earthquake Activity

City Distance Mag. Time & Date
Minimum magnitude displayed is 2.5.

Coastal Water Temperatures

Place Temperature

Stations

Nearby Weather Stations

Station Location Temp. Windchill Dew Point Humidity Wind Precip. Elev Updated Type